Time;durP1;ratioP1;P1;durP2;ratioP2;P2;SDS_P1;SDS_P2;PMS_P1;PMS_P2;Temp;Humidity;BMP_temperature;BMP_pressure;BME280_temperature;BME280_humidity;BME280_pressure;Samples;Min_cycle;Max_cycle;Signal;HPM_P1;HPM_P2
2022/02/11 00:07:09;;;;;;;8.93;1.80;;;;;;;;;;5036221;28;20188;-68
2022/02/11 00:09:34;;;;;;;7.80;2.13;;;;;;;;;;5042981;28;20180;-68
2022/02/11 00:12:00;;;;;;;9.83;2.10;;;;;;;;;;5043707;28;20181;-67
2022/02/11 00:14:28;;;;;;;8.47;2.30;;;;;;;;;;5041751;28;20201;-67
2022/02/11 00:16:53;;;;;;;10.50;2.20;;;;;;;;;;5042381;28;20645;-68
2022/02/11 00:19:18;;;;;;;10.70;2.57;;;;;;;;;;5041161;28;20262;-68
2022/02/11 00:21:44;;;;;;;12.87;2.57;;;;;;;;;;5034537;28;20770;-67
2022/02/11 00:24:09;;;;;;;10.07;2.40;;;;;;;;;;5045495;28;20558;-67
2022/02/11 00:26:37;;;;;;;9.77;2.37;;;;;;;;;;5049188;28;20177;-68
2022/02/11 00:34:07;;;;;;;9.37;2.73;;;;;;;;;;5045907;28;20189;-68
2022/02/11 00:37:22;;;;;;;8.23;2.30;;;;;;;;;;5050598;28;20594;-67
2022/02/11 00:39:51;;;;;;;10.83;2.50;;;;;;;;;;5048454;28;20224;-68
2022/02/11 01:06:09;;;;;;;9.10;2.87;;;;;;;;;;5046752;28;20189;-68
2022/02/11 01:08:35;;;;;;;12.67;2.43;;;;;;;;;;5040686;28;20642;-67
2022/02/11 01:11:02;;;;;;;10.57;2.20;;;;;;;;;;5044327;28;20192;-68
2022/02/11 01:13:27;;;;;;;8.97;2.10;;;;;;;;;;5037346;28;20197;-68
2022/02/11 01:16:01;;;;;;;14.73;2.50;;;;;;;;;;5046876;28;20185;-69
2022/02/11 01:18:27;;;;;;;7.97;2.60;;;;;;;;;;5042514;28;20662;-68
2022/02/11 01:20:59;;;;;;;6.93;2.00;;;;;;;;;;5046708;28;20539;-67
2022/02/11 01:23:46;;;;;;;8.60;1.73;;;;;;;;;;5042334;28;20281;-68
2022/02/11 01:29:20;;;;;;;9.10;2.10;;;;;;;;;;5046354;28;20201;-68
2022/02/11 01:37:18;;;;;;;6.97;1.73;;;;;;;;;;5044191;28;20181;-68
2022/02/11 01:43:39;;;;;;;9.70;2.07;;;;;;;;;;5046187;28;20188;-68
2022/02/11 01:50:56;;;;;;;11.37;1.70;;;;;;;;;;5044712;28;20190;-67
2022/02/11 01:56:18;;;;;;;11.87;1.60;;;;;;;;;;5045554;28;20243;-67
2022/02/11 02:12:50;;;;;;;5.77;1.33;;;;;;;;;;5043679;28;20182;-68
2022/02/11 02:33:55;;;;;;;8.83;2.03;;;;;;;;;;5048647;28;20189;-67
2022/02/11 02:39:14;;;;;;;10.63;1.97;;;;;;;;;;5050356;28;20272;-67
2022/02/11 02:57:54;;;;;;;11.23;1.93;;;;;;;;;;5046294;28;20254;-70
2022/02/11 03:49:22;;;;;;;13.40;2.60;;;;;;;;;;5040649;28;20312;-69
2022/02/11 03:52:13;;;;;;;11.77;2.77;;;;;;;;;;5041562;28;20658;-70
2022/02/11 04:59:59;;;;;;;12.07;1.50;;;;;;;;;;5042343;28;20208;-68
2022/02/11 05:02:26;;;;;;;8.10;1.67;;;;;;;;;;5045361;28;20178;-69
2022/02/11 05:04:53;;;;;;;8.60;1.20;;;;;;;;;;5042469;28;20245;-69
2022/02/11 05:07:18;;;;;;;13.50;1.40;;;;;;;;;;5043712;28;20197;-69
2022/02/11 05:09:44;;;;;;;13.00;1.20;;;;;;;;;;5045570;28;20196;-68
2022/02/11 05:12:09;;;;;;;8.63;1.57;;;;;;;;;;5047208;28;20191;-68
2022/02/11 05:14:34;;;;;;;9.27;1.70;;;;;;;;;;5042298;28;20184;-69
2022/02/11 05:17:00;;;;;;;13.07;1.33;;;;;;;;;;5045144;28;20217;-68
2022/02/11 05:19:25;;;;;;;11.90;2.50;;;;;;;;;;5041952;28;20541;-68
2022/02/11 05:21:50;;;;;;;16.30;1.50;;;;;;;;;;5048280;28;20189;-68
2022/02/11 05:24:16;;;;;;;10.63;2.20;;;;;;;;;;5046720;28;20235;-68
2022/02/11 05:26:41;;;;;;;7.03;1.20;;;;;;;;;;5048394;28;20265;-68
2022/02/11 05:29:06;;;;;;;10.23;1.43;;;;;;;;;;5044076;28;20186;-68
2022/02/11 05:31:32;;;;;;;11.57;0.97;;;;;;;;;;5046137;28;20711;-68
2022/02/11 05:33:57;;;;;;;11.27;1.27;;;;;;;;;;5041152;28;20676;-68
2022/02/11 05:36:23;;;;;;;12.83;1.60;;;;;;;;;;5045350;28;20645;-67
2022/02/11 05:38:48;;;;;;;10.50;1.50;;;;;;;;;;5050952;28;20588;-67
2022/02/11 05:41:13;;;;;;;13.57;1.33;;;;;;;;;;5043990;28;20201;-67
2022/02/11 05:43:40;;;;;;;12.73;1.97;;;;;;;;;;5045415;28;20276;-68
2022/02/11 05:46:08;;;;;;;15.27;1.10;;;;;;;;;;5046451;28;20652;-68
2022/02/11 05:48:35;;;;;;;12.90;1.77;;;;;;;;;;5050881;28;20189;-68
2022/02/11 05:51:01;;;;;;;9.33;1.93;;;;;;;;;;5045008;28;20173;-68
2022/02/11 05:53:26;;;;;;;17.33;1.50;;;;;;;;;;5049495;28;20690;-67
2022/02/11 05:55:51;;;;;;;18.87;2.20;;;;;;;;;;5045203;28;20267;-68
2022/02/11 05:58:17;;;;;;;13.73;1.40;;;;;;;;;;5041987;28;20560;-67
2022/02/11 06:00:42;;;;;;;7.87;1.20;;;;;;;;;;5045634;28;20193;-68
2022/02/11 06:03:07;;;;;;;10.20;1.33;;;;;;;;;;5044007;28;20235;-68
2022/02/11 06:05:33;;;;;;;10.27;1.80;;;;;;;;;;5045811;28;20244;-68
2022/02/11 06:07:59;;;;;;;10.80;2.07;;;;;;;;;;5050639;28;20213;-68
2022/02/11 06:10:24;;;;;;;8.23;1.40;;;;;;;;;;5043813;28;20181;-68
2022/02/11 06:12:50;;;;;;;16.20;1.57;;;;;;;;;;5047524;28;20181;-67
2022/02/11 06:15:16;;;;;;;12.90;1.93;;;;;;;;;;5040995;28;20569;-67
2022/02/11 06:17:41;;;;;;;10.03;1.87;;;;;;;;;;5050728;28;20272;-67
2022/02/11 06:20:07;;;;;;;16.43;2.10;;;;;;;;;;5044596;28;20201;-67
2022/02/11 06:22:34;;;;;;;12.87;1.87;;;;;;;;;;5053846;28;20555;-67
2022/02/11 06:24:59;;;;;;;10.77;1.60;;;;;;;;;;5046896;28;20260;-67
2022/02/11 06:27:25;;;;;;;11.37;1.67;;;;;;;;;;5047843;28;20268;-67
2022/02/11 06:29:51;;;;;;;18.27;2.63;;;;;;;;;;5048989;28;20193;-67
2022/02/11 06:32:16;;;;;;;12.20;2.17;;;;;;;;;;5046178;28;20240;-67
2022/02/11 06:34:41;;;;;;;15.17;2.60;;;;;;;;;;5049686;28;20193;-67
2022/02/11 06:37:07;;;;;;;13.97;1.60;;;;;;;;;;5043410;28;20185;-67
2022/02/11 06:39:32;;;;;;;13.67;1.67;;;;;;;;;;5047189;28;20417;-68
2022/02/11 06:41:58;;;;;;;14.23;2.10;;;;;;;;;;5041432;28;20629;-67
2022/02/11 06:44:23;;;;;;;16.53;2.43;;;;;;;;;;5049609;28;20492;-68
2022/02/11 06:46:49;;;;;;;18.97;2.10;;;;;;;;;;5042433;28;20661;-68
2022/02/11 06:49:14;;;;;;;12.10;2.30;;;;;;;;;;5047763;28;20177;-68
2022/02/11 06:51:40;;;;;;;18.57;2.60;;;;;;;;;;5045645;28;20228;-68
2022/02/11 06:54:06;;;;;;;12.60;2.60;;;;;;;;;;5061160;28;20220;-67
2022/02/11 06:56:31;;;;;;;14.83;2.40;;;;;;;;;;5044854;28;20186;-67
2022/02/11 06:58:56;;;;;;;13.47;2.53;;;;;;;;;;5047325;28;20547;-67
2022/02/11 07:01:23;;;;;;;15.07;2.23;;;;;;;;;;5040342;28;20189;-67
2022/02/11 07:03:49;;;;;;;13.87;1.80;;;;;;;;;;5048510;28;20290;-67
2022/02/11 07:06:14;;;;;;;15.00;2.20;;;;;;;;;;5045388;28;20652;-67
2022/02/11 07:08:40;;;;;;;10.97;1.30;;;;;;;;;;5045703;28;20193;-67
2022/02/11 07:11:05;;;;;;;16.97;1.77;;;;;;;;;;5046407;28;20189;-67
2022/02/11 07:13:30;;;;;;;11.03;1.50;;;;;;;;;;5046135;28;20234;-67
2022/02/11 07:15:56;;;;;;;16.20;2.33;;;;;;;;;;5043829;28;20273;-67
2022/02/11 07:18:21;;;;;;;8.87;1.67;;;;;;;;;;5054574;28;20565;-67
2022/02/11 07:20:49;;;;;;;12.10;1.67;;;;;;;;;;5052316;28;20207;-67
2022/02/11 07:23:14;;;;;;;12.23;1.80;;;;;;;;;;5049566;28;20656;-67
2022/02/11 07:25:40;;;;;;;10.27;1.67;;;;;;;;;;5049050;28;20216;-67
2022/02/11 07:28:05;;;;;;;14.43;2.10;;;;;;;;;;5044891;28;20185;-66
2022/02/11 07:30:31;;;;;;;13.10;2.10;;;;;;;;;;5032689;28;20215;-67
2022/02/11 07:32:57;;;;;;;12.63;2.10;;;;;;;;;;5044040;28;20181;-67
2022/02/11 07:35:22;;;;;;;18.57;2.50;;;;;;;;;;5046819;28;20666;-67
2022/02/11 07:37:48;;;;;;;22.93;2.60;;;;;;;;;;5048686;28;20720;-67
2022/02/11 07:40:14;;;;;;;18.40;2.90;;;;;;;;;;5051352;28;20279;-67
2022/02/11 07:42:41;;;;;;;15.47;2.70;;;;;;;;;;5045766;28;20204;-68
2022/02/11 07:45:08;;;;;;;13.60;2.07;;;;;;;;;;5049067;28;20182;-68
2022/02/11 07:47:33;;;;;;;13.83;2.27;;;;;;;;;;5042730;28;20192;-68
2022/02/11 07:49:59;;;;;;;13.23;2.47;;;;;;;;;;5035483;28;20190;-69
2022/02/11 07:52:25;;;;;;;19.60;2.23;;;;;;;;;;5035046;28;20754;-69
2022/02/11 07:54:50;;;;;;;16.30;2.27;;;;;;;;;;5038342;28;20189;-69
2022/02/11 07:57:16;;;;;;;24.53;2.63;;;;;;;;;;5040136;28;20216;-69
2022/02/11 07:59:41;;;;;;;18.23;2.37;;;;;;;;;;5045624;28;20204;-68
2022/02/11 08:02:07;;;;;;;7.13;1.43;;;;;;;;;;5041137;28;20188;-68
2022/02/11 08:04:32;;;;;;;10.30;1.57;;;;;;;;;;5041945;28;20248;-69
2022/02/11 08:06:58;;;;;;;9.53;1.67;;;;;;;;;;5053449;28;20223;-70
2022/02/11 08:09:24;;;;;;;12.40;1.83;;;;;;;;;;5042227;28;20182;-69
2022/02/11 08:11:50;;;;;;;15.43;1.67;;;;;;;;;;5050108;28;20321;-68
2022/02/11 08:14:15;;;;;;;12.07;1.83;;;;;;;;;;5041867;28;20646;-68
2022/02/11 08:16:40;;;;;;;16.53;2.47;;;;;;;;;;5051698;28;20189;-68
2022/02/11 08:19:06;;;;;;;13.03;2.10;;;;;;;;;;5042370;28;20185;-68
2022/02/11 08:21:33;;;;;;;14.60;2.07;;;;;;;;;;5043849;28;20246;-68
2022/02/11 08:23:59;;;;;;;20.10;2.00;;;;;;;;;;5037033;28;20258;-68
2022/02/11 08:26:25;;;;;;;16.77;2.27;;;;;;;;;;5046609;28;20645;-69
2022/02/11 08:28:51;;;;;;;16.10;2.70;;;;;;;;;;5043934;28;20271;-68
2022/02/11 08:31:16;;;;;;;13.53;2.60;;;;;;;;;;5048038;28;20248;-69
2022/02/11 08:33:41;;;;;;;14.50;2.20;;;;;;;;;;5045630;28;20511;-68
2022/02/11 08:36:07;;;;;;;15.40;2.40;;;;;;;;;;5046270;28;20189;-67
2022/02/11 08:38:32;;;;;;;13.37;2.57;;;;;;;;;;5034816;28;20184;-68
2022/02/11 08:40:59;;;;;;;23.07;3.67;;;;;;;;;;5049119;28;20197;-68
2022/02/11 08:43:24;;;;;;;17.27;2.30;;;;;;;;;;5047984;28;20179;-68
2022/02/11 08:45:50;;;;;;;20.27;2.50;;;;;;;;;;5057519;28;20288;-68
2022/02/11 08:48:16;;;;;;;20.63;3.80;;;;;;;;;;5048292;28;20185;-67
2022/02/11 08:50:42;;;;;;;11.70;2.50;;;;;;;;;;5048786;28;20587;-69
2022/02/11 08:53:09;;;;;;;12.63;2.47;;;;;;;;;;5052726;28;20555;-68
2022/02/11 08:55:36;;;;;;;16.30;2.00;;;;;;;;;;5046079;28;20282;-68
2022/02/11 08:58:04;;;;;;;22.53;2.87;;;;;;;;;;5055892;28;20216;-68
2022/02/11 09:00:31;;;;;;;8.83;1.80;;;;;;;;;;5048349;28;20197;-67
2022/02/11 09:02:57;;;;;;;11.60;2.33;;;;;;;;;;5035757;28;20256;-68
2022/02/11 09:05:24;;;;;;;11.27;2.53;;;;;;;;;;5045124;28;20232;-67
2022/02/11 09:07:53;;;;;;;8.77;1.73;;;;;;;;;;5058098;28;20704;-68
2022/02/11 09:10:19;;;;;;;17.30;2.20;;;;;;;;;;5044261;28;20738;-68
2022/02/11 09:12:44;;;;;;;14.87;2.70;;;;;;;;;;5053988;28;20466;-68
2022/02/11 09:15:10;;;;;;;26.77;3.37;;;;;;;;;;5045998;28;20280;-67
2022/02/11 09:17:35;;;;;;;20.53;2.47;;;;;;;;;;5055858;28;20182;-67
2022/02/11 09:20:00;;;;;;;19.77;2.33;;;;;;;;;;5042891;28;20197;-67
2022/02/11 09:22:26;;;;;;;16.03;2.43;;;;;;;;;;5042160;28;20525;-67
2022/02/11 09:24:54;;;;;;;16.20;1.93;;;;;;;;;;5044288;28;20260;-68
2022/02/11 09:27:20;;;;;;;11.80;1.67;;;;;;;;;;5055504;28;20182;-67
2022/02/11 09:29:45;;;;;;;11.70;1.27;;;;;;;;;;5048535;28;20187;-68
2022/02/11 09:32:11;;;;;;;13.07;1.77;;;;;;;;;;5053753;28;20210;-68
2022/02/11 09:34:37;;;;;;;15.10;1.97;;;;;;;;;;5046330;28;20265;-70
2022/02/11 09:37:03;;;;;;;12.23;1.77;;;;;;;;;;5053524;28;20185;-67
2022/02/11 09:39:28;;;;;;;17.10;2.77;;;;;;;;;;5047982;28;20201;-68
2022/02/11 09:41:54;;;;;;;18.40;1.90;;;;;;;;;;5053787;28;20612;-68
2022/02/11 09:44:24;;;;;;;12.67;1.93;;;;;;;;;;5048351;28;20645;-68
2022/02/11 09:46:50;;;;;;;16.00;1.63;;;;;;;;;;5046779;28;20241;-68
2022/02/11 09:49:15;;;;;;;12.80;1.80;;;;;;;;;;5047463;28;20182;-68
2022/02/11 09:51:42;;;;;;;18.70;3.03;;;;;;;;;;5046950;28;20196;-68
2022/02/11 09:54:08;;;;;;;20.90;3.00;;;;;;;;;;5049152;28;20181;-68
2022/02/11 09:56:33;;;;;;;20.83;2.63;;;;;;;;;;5045081;28;20188;-68
2022/02/11 09:59:00;;;;;;;21.57;3.63;;;;;;;;;;5064709;28;20244;-67
2022/02/11 10:01:26;;;;;;;16.03;3.03;;;;;;;;;;5047604;28;20194;-67
2022/02/11 10:04:11;;;;;;;16.03;2.47;;;;;;;;;;5049309;28;20319;-68
2022/02/11 10:06:37;;;;;;;16.73;3.33;;;;;;;;;;5044140;28;20230;-68
2022/02/11 10:09:04;;;;;;;21.93;2.80;;;;;;;;;;5038252;28;20195;-67
2022/02/11 10:11:30;;;;;;;23.73;2.77;;;;;;;;;;5046714;28;20540;-67
2022/02/11 10:13:56;;;;;;;17.77;2.63;;;;;;;;;;5052296;28;20174;-68
2022/02/11 10:16:24;;;;;;;21.73;2.57;;;;;;;;;;5049988;28;20180;-67
2022/02/11 10:18:51;;;;;;;18.57;3.27;;;;;;;;;;5053851;28;20213;-67
2022/02/11 10:21:20;;;;;;;11.67;2.10;;;;;;;;;;5048087;28;20205;-67
2022/02/11 10:23:47;;;;;;;9.70;1.60;;;;;;;;;;5049078;28;20186;-68
2022/02/11 10:26:15;;;;;;;21.67;2.77;;;;;;;;;;5045061;28;20408;-67
2022/02/11 10:28:55;;;;;;;19.10;2.23;;;;;;;;;;5039103;28;20592;-67
2022/02/11 10:31:34;;;;;;;21.77;2.60;;;;;;;;;;5054546;28;20486;-67
2022/02/11 10:34:11;;;;;;;21.30;2.07;;;;;;;;;;5050278;28;20196;-67
2022/02/11 10:36:47;;;;;;;15.43;2.73;;;;;;;;;;5046367;28;20189;-67
2022/02/11 10:39:19;;;;;;;15.57;2.13;;;;;;;;;;5040776;28;20193;-68
2022/02/11 10:41:54;;;;;;;9.27;1.77;;;;;;;;;;5060684;28;20514;-67
2022/02/11 10:44:25;;;;;;;12.30;2.13;;;;;;;;;;5044091;28;20644;-68
2022/02/11 10:46:53;;;;;;;13.40;1.50;;;;;;;;;;5049870;28;20193;-68
2022/02/11 10:49:29;;;;;;;11.23;1.93;;;;;;;;;;5047657;28;20177;-68
2022/02/11 10:51:55;;;;;;;15.90;2.40;;;;;;;;;;5046801;28;20208;-68
2022/02/11 10:54:29;;;;;;;15.53;2.20;;;;;;;;;;5052789;28;20863;-66
2022/02/11 10:56:58;;;;;;;14.30;1.70;;;;;;;;;;5048540;28;20212;-66
2022/02/11 10:59:34;;;;;;;23.93;2.30;;;;;;;;;;5053091;28;20181;-67
2022/02/11 11:02:02;;;;;;;14.13;2.20;;;;;;;;;;5036994;28;20358;-68
2022/02/11 11:04:27;;;;;;;12.07;1.87;;;;;;;;;;5044876;28;20267;-67
2022/02/11 11:06:56;;;;;;;11.20;2.00;;;;;;;;;;5042714;28;20664;-67
2022/02/11 11:09:25;;;;;;;12.33;1.67;;;;;;;;;;5037777;28;20597;-68
2022/02/11 11:11:52;;;;;;;9.60;1.70;;;;;;;;;;5043483;28;20259;-68
2022/02/11 11:14:19;;;;;;;10.63;1.90;;;;;;;;;;5036001;28;20208;-68
2022/02/11 11:16:46;;;;;;;7.80;1.37;;;;;;;;;;5041898;28;20223;-68
2022/02/11 11:19:13;;;;;;;13.60;1.67;;;;;;;;;;5038974;28;20470;-67
2022/02/11 11:21:43;;;;;;;7.83;1.33;;;;;;;;;;5043944;28;20208;-67
2022/02/11 11:24:09;;;;;;;13.77;1.93;;;;;;;;;;5040878;28;20413;-67
2022/02/11 11:26:35;;;;;;;9.73;1.40;;;;;;;;;;5042806;28;20463;-68
2022/02/11 11:29:18;;;;;;;9.60;2.10;;;;;;;;;;5045702;28;20219;-67
2022/02/11 11:32:00;;;;;;;9.20;1.20;;;;;;;;;;5045249;28;20205;-67
2022/02/11 11:34:26;;;;;;;7.57;1.20;;;;;;;;;;5046089;28;20248;-67
2022/02/11 11:36:55;;;;;;;10.63;1.47;;;;;;;;;;5045834;28;20181;-66
2022/02/11 11:39:21;;;;;;;6.57;1.20;;;;;;;;;;5040236;28;20193;-66
2022/02/11 11:42:07;;;;;;;8.17;1.70;;;;;;;;;;5047431;28;20179;-67
2022/02/11 11:44:54;;;;;;;13.87;1.70;;;;;;;;;;5043761;28;20608;-67
2022/02/11 11:47:35;;;;;;;6.77;1.30;;;;;;;;;;5051043;28;20308;-67
2022/02/11 11:50:03;;;;;;;12.00;1.70;;;;;;;;;;5050610;28;20172;-67
2022/02/11 11:52:46;;;;;;;7.83;1.70;;;;;;;;;;5052642;28;20199;-69
2022/02/11 11:55:23;;;;;;;9.97;1.70;;;;;;;;;;5053143;28;20666;-67
2022/02/11 11:57:49;;;;;;;17.23;2.33;;;;;;;;;;5041589;28;20501;-67
2022/02/11 12:00:36;;;;;;;12.23;2.23;;;;;;;;;;5056252;28;20538;-67
2022/02/11 12:03:01;;;;;;;11.53;1.87;;;;;;;;;;5043214;28;20684;-67
2022/02/11 12:06:00;;;;;;;20.07;2.17;;;;;;;;;;5046678;28;20221;-67
2022/02/11 12:08:28;;;;;;;12.33;1.60;;;;;;;;;;5041477;28;20198;-65
2022/02/11 12:10:57;;;;;;;15.97;1.73;;;;;;;;;;5042911;28;20699;-66
2022/02/11 12:13:23;;;;;;;13.23;2.33;;;;;;;;;;5033727;28;20684;-67
2022/02/11 12:15:49;;;;;;;13.37;1.63;;;;;;;;;;5043866;28;20181;-66
2022/02/11 12:18:14;;;;;;;12.43;2.10;;;;;;;;;;5045638;28;20268;-66
2022/02/11 12:20:40;;;;;;;14.07;1.93;;;;;;;;;;5047021;28;20213;-66
2022/02/11 12:28:38;;;;;;;14.00;2.10;;;;;;;;;;5053680;28;20347;-66
2022/02/11 12:31:06;;;;;;;14.80;1.97;;;;;;;;;;5050035;28;20280;-67
2022/02/11 12:33:32;;;;;;;17.07;2.03;;;;;;;;;;5049402;28;20196;-67
2022/02/11 12:36:08;;;;;;;12.47;1.70;;;;;;;;;;5049603;28;20224;-68
2022/02/11 12:38:33;;;;;;;9.40;2.00;;;;;;;;;;5050301;28;20185;-67
2022/02/11 12:40:59;;;;;;;13.40;2.20;;;;;;;;;;5049078;28;20199;-67
2022/02/11 12:43:29;;;;;;;21.93;2.37;;;;;;;;;;5047882;28;20207;-67
2022/02/11 12:45:55;;;;;;;17.70;1.90;;;;;;;;;;5048934;28;20268;-68
2022/02/11 12:48:30;;;;;;;14.33;1.73;;;;;;;;;;5044082;28;20196;-67
2022/02/11 12:50:55;;;;;;;10.67;1.70;;;;;;;;;;5049666;28;20180;-66
2022/02/11 12:53:22;;;;;;;14.57;1.87;;;;;;;;;;5043852;28;20182;-67
2022/02/11 12:55:50;;;;;;;14.13;1.60;;;;;;;;;;5050803;28;20625;-67
2022/02/11 12:58:18;;;;;;;11.90;1.97;;;;;;;;;;5043625;28;20239;-67
2022/02/11 13:00:46;;;;;;;8.53;1.50;;;;;;;;;;5047436;28;20697;-68
2022/02/11 13:03:16;;;;;;;9.70;1.20;;;;;;;;;;5048810;28;20197;-67
2022/02/11 13:05:44;;;;;;;5.23;1.17;;;;;;;;;;5059530;28;20221;-67
2022/02/11 13:08:17;;;;;;;10.80;1.50;;;;;;;;;;5042506;28;20186;-67
2022/02/11 13:10:42;;;;;;;16.60;1.70;;;;;;;;;;5049097;28;20444;-67
2022/02/11 13:13:16;;;;;;;11.80;2.00;;;;;;;;;;5045574;28;20179;-67
2022/02/11 13:15:45;;;;;;;12.13;1.30;;;;;;;;;;5049038;28;20235;-66
2022/02/11 13:18:20;;;;;;;9.67;1.57;;;;;;;;;;5048775;28;20269;-67
2022/02/11 13:20:47;;;;;;;6.80;0.90;;;;;;;;;;5050802;28;20243;-67
2022/02/11 13:23:24;;;;;;;9.73;1.27;;;;;;;;;;5060226;28;20555;-67
2022/02/11 13:25:55;;;;;;;5.27;0.83;;;;;;;;;;5045926;28;20578;-67
2022/02/11 13:28:22;;;;;;;6.33;0.87;;;;;;;;;;5048566;28;20189;-67
2022/02/11 13:30:56;;;;;;;6.23;1.30;;;;;;;;;;5044267;28;20208;-68
2022/02/11 13:33:33;;;;;;;7.87;1.23;;;;;;;;;;5047015;28;21339;-67
2022/02/11 13:36:09;;;;;;;16.87;1.70;;;;;;;;;;5049640;28;20188;-67
2022/02/11 13:38:40;;;;;;;9.03;1.07;;;;;;;;;;5054650;28;20186;-67
2022/02/11 13:41:08;;;;;;;8.73;1.00;;;;;;;;;;5056127;28;20201;-67
2022/02/11 13:43:52;;;;;;;15.73;1.77;;;;;;;;;;5052346;28;20622;-67
2022/02/11 13:46:26;;;;;;;5.97;1.17;;;;;;;;;;5050155;28;20185;-67
2022/02/11 13:48:54;;;;;;;4.97;1.20;;;;;;;;;;5047226;28;20281;-67
2022/02/11 13:51:19;;;;;;;6.47;1.07;;;;;;;;;;5060167;28;20252;-66
2022/02/11 13:53:53;;;;;;;7.10;0.90;;;;;;;;;;5046603;28;20234;-67
2022/02/11 13:56:34;;;;;;;8.40;1.30;;;;;;;;;;5055882;28;20189;-67
2022/02/11 13:59:27;;;;;;;8.40;1.30;;;;;;;;;;5047261;28;20176;-67
2022/02/11 14:02:03;;;;;;;7.93;0.90;;;;;;;;;;5049474;28;20201;-67
2022/02/11 14:04:32;;;;;;;7.57;1.40;;;;;;;;;;5047965;28;20817;-67
2022/02/11 14:06:58;;;;;;;7.33;1.20;;;;;;;;;;5048381;28;20659;-67
2022/02/11 14:09:32;;;;;;;7.73;1.13;;;;;;;;;;5043573;28;20193;-67
2022/02/11 14:11:59;;;;;;;4.70;0.80;;;;;;;;;;5044341;28;20663;-66
2022/02/11 14:14:24;;;;;;;6.27;1.10;;;;;;;;;;5044052;28;20657;-67
2022/02/11 14:16:51;;;;;;;7.17;1.10;;;;;;;;;;5044225;28;20273;-67
2022/02/11 14:19:17;;;;;;;3.13;0.60;;;;;;;;;;5041145;28;20199;-67
2022/02/11 14:21:43;;;;;;;3.97;1.03;;;;;;;;;;5043945;28;20204;-67
2022/02/11 14:24:09;;;;;;;2.93;0.83;;;;;;;;;;5038931;28;20193;-73
2022/02/11 14:26:36;;;;;;;7.77;1.17;;;;;;;;;;5046002;28;20540;-67
2022/02/11 14:29:01;;;;;;;4.43;0.83;;;;;;;;;;5046611;28;20200;-67
2022/02/11 14:31:26;;;;;;;3.87;0.80;;;;;;;;;;5042576;28;20197;-67
2022/02/11 14:33:52;;;;;;;4.73;0.97;;;;;;;;;;5045390;28;20185;-66
2022/02/11 14:36:17;;;;;;;5.43;1.00;;;;;;;;;;5041055;28;20632;-67
2022/02/11 14:38:42;;;;;;;4.23;0.70;;;;;;;;;;5045132;28;20197;-66
2022/02/11 14:43:52;;;;;;;5.77;0.63;;;;;;;;;;5042742;28;20236;-65
2022/02/11 14:46:17;;;;;;;9.40;1.37;;;;;;;;;;5043508;28;20674;-66
2022/02/11 14:48:43;;;;;;;3.87;0.53;;;;;;;;;;5044596;28;20242;-66
2022/02/11 14:51:09;;;;;;;6.13;0.80;;;;;;;;;;5046841;28;20243;-66
2022/02/11 14:53:34;;;;;;;5.00;0.90;;;;;;;;;;5046952;28;20197;-67
2022/02/11 14:56:00;;;;;;;5.00;0.90;;;;;;;;;;5047632;28;20178;-67
2022/02/11 14:58:25;;;;;;;5.47;1.00;;;;;;;;;;5039723;28;20648;-67
2022/02/11 15:00:51;;;;;;;3.70;0.67;;;;;;;;;;5034960;28;20284;-68
2022/02/11 15:03:16;;;;;;;10.47;1.23;;;;;;;;;;5039604;28;20322;-67
2022/02/11 15:05:42;;;;;;;5.30;0.73;;;;;;;;;;5041871;28;20213;-67
2022/02/11 15:08:07;;;;;;;6.30;0.80;;;;;;;;;;5046473;28;20192;-67
2022/02/11 15:10:32;;;;;;;4.70;1.10;;;;;;;;;;5057212;28;20196;-67
2022/02/11 15:12:58;;;;;;;3.93;0.57;;;;;;;;;;5044056;28;20185;-66
2022/02/11 15:15:25;;;;;;;3.50;0.50;;;;;;;;;;5049913;28;20551;-66
2022/02/11 15:17:50;;;;;;;4.03;0.60;;;;;;;;;;5042330;28;20526;-68
2022/02/11 15:20:16;;;;;;;4.67;0.90;;;;;;;;;;5038181;28;20216;-67
2022/02/11 15:22:41;;;;;;;7.67;0.90;;;;;;;;;;5044522;28;20181;-67
2022/02/11 15:25:07;;;;;;;9.23;1.10;;;;;;;;;;5041965;28;20295;-67
2022/02/11 15:27:32;;;;;;;3.77;0.80;;;;;;;;;;5042782;28;20189;-66
2022/02/11 15:29:58;;;;;;;4.17;0.57;;;;;;;;;;5042221;28;20560;-66
2022/02/11 15:32:24;;;;;;;5.63;0.87;;;;;;;;;;5045430;28;20659;-67
2022/02/11 15:34:49;;;;;;;3.67;0.60;;;;;;;;;;5043950;28;20588;-67
2022/02/11 15:37:16;;;;;;;4.50;0.77;;;;;;;;;;5052262;28;20218;-67
2022/02/11 15:39:42;;;;;;;3.17;0.47;;;;;;;;;;5048077;28;20225;-67
2022/02/11 15:42:07;;;;;;;6.27;1.00;;;;;;;;;;5046229;28;20267;-67
2022/02/11 15:44:32;;;;;;;2.97;0.80;;;;;;;;;;5046730;28;20194;-68
2022/02/11 15:46:58;;;;;;;8.40;0.83;;;;;;;;;;5049750;28;20196;-66
2022/02/11 15:49:23;;;;;;;6.67;1.00;;;;;;;;;;5044567;28;20193;-67
2022/02/11 15:51:48;;;;;;;6.50;1.33;;;;;;;;;;5057726;28;20184;-67
2022/02/11 15:54:17;;;;;;;6.77;0.70;;;;;;;;;;5043525;28;20181;-67
2022/02/11 15:56:42;;;;;;;3.70;0.60;;;;;;;;;;5054737;28;20225;-68
2022/02/11 15:59:08;;;;;;;3.57;0.90;;;;;;;;;;5042650;28;20209;-67
2022/02/11 16:01:33;;;;;;;6.33;1.10;;;;;;;;;;5047945;28;20217;-67
2022/02/11 16:04:00;;;;;;;6.73;1.10;;;;;;;;;;5041439;28;20225;-66
2022/02/11 16:06:25;;;;;;;8.03;0.97;;;;;;;;;;5052080;28;20565;-67
2022/02/11 16:08:51;;;;;;;8.97;1.80;;;;;;;;;;5044284;28;20196;-67
2022/02/11 16:11:16;;;;;;;9.43;1.67;;;;;;;;;;5045043;28;20774;-67
2022/02/11 16:13:41;;;;;;;5.77;1.23;;;;;;;;;;5050443;28;20208;-67
2022/02/11 16:16:07;;;;;;;9.93;1.50;;;;;;;;;;5043638;28;20557;-67
2022/02/11 16:18:33;;;;;;;6.60;1.50;;;;;;;;;;5049791;28;20181;-68
2022/02/11 16:20:58;;;;;;;10.60;1.73;;;;;;;;;;5046408;28;20205;-67
2022/02/11 16:23:24;;;;;;;8.60;1.97;;;;;;;;;;5045778;28;20193;-67
2022/02/11 16:25:52;;;;;;;12.00;2.07;;;;;;;;;;5042368;28;20254;-67
2022/02/11 16:28:19;;;;;;;8.80;1.53;;;;;;;;;;5044862;28;20379;-67
2022/02/11 16:30:45;;;;;;;7.23;1.40;;;;;;;;;;5044860;28;20205;-67
2022/02/11 16:33:11;;;;;;;9.87;1.47;;;;;;;;;;5058391;28;20189;-67
2022/02/11 16:35:39;;;;;;;8.40;1.87;;;;;;;;;;5041395;28;20185;-67
2022/02/11 16:38:05;;;;;;;10.57;1.60;;;;;;;;;;5043933;28;20182;-66
2022/02/11 16:40:31;;;;;;;9.23;1.60;;;;;;;;;;5044720;28;20399;-67
2022/02/11 16:42:56;;;;;;;6.17;1.70;;;;;;;;;;5046105;28;20270;-67
2022/02/11 16:45:22;;;;;;;5.37;1.37;;;;;;;;;;5043259;28;20189;-66
2022/02/11 16:47:47;;;;;;;14.93;2.17;;;;;;;;;;5049364;28;20205;-67
2022/02/11 16:50:13;;;;;;;6.93;1.83;;;;;;;;;;5044096;28;20181;-67
2022/02/11 16:52:38;;;;;;;6.50;1.60;;;;;;;;;;5054371;28;21348;-66
2022/02/11 16:55:09;;;;;;;9.20;1.73;;;;;;;;;;5043527;28;20332;-67
2022/02/11 16:57:35;;;;;;;8.13;1.83;;;;;;;;;;5053377;28;20188;-67
2022/02/11 17:00:00;;;;;;;10.57;1.67;;;;;;;;;;5042517;28;20200;-67
2022/02/11 17:02:27;;;;;;;10.47;1.60;;;;;;;;;;5050890;28;20212;-66
2022/02/11 17:04:53;;;;;;;8.00;1.80;;;;;;;;;;5046987;28;20225;-67
2022/02/11 17:07:19;;;;;;;9.37;2.20;;;;;;;;;;5058129;28;20203;-67
2022/02/11 17:09:46;;;;;;;11.70;2.33;;;;;;;;;;5046482;28;20178;-67
2022/02/11 17:12:11;;;;;;;8.77;1.67;;;;;;;;;;5054445;28;20307;-67
2022/02/11 17:14:37;;;;;;;14.50;2.47;;;;;;;;;;5046924;28;20218;-67
2022/02/11 17:17:03;;;;;;;8.60;1.93;;;;;;;;;;5046674;28;20181;-67
2022/02/11 17:19:28;;;;;;;10.63;2.13;;;;;;;;;;5045548;28;20645;-67
2022/02/11 17:21:54;;;;;;;9.50;2.20;;;;;;;;;;5039826;28;20190;-66
2022/02/11 17:24:19;;;;;;;9.87;2.40;;;;;;;;;;5051189;28;20237;-67
2022/02/11 17:26:46;;;;;;;9.17;2.40;;;;;;;;;;5042404;28;20194;-67
2022/02/11 17:29:12;;;;;;;13.73;2.33;;;;;;;;;;5046637;28;20185;-66
2022/02/11 17:31:39;;;;;;;11.93;3.37;;;;;;;;;;5042823;28;20209;-66
2022/02/11 17:34:05;;;;;;;13.27;3.10;;;;;;;;;;5050271;28;20272;-67
2022/02/11 17:36:31;;;;;;;14.20;3.80;;;;;;;;;;5046607;28;20272;-67
2022/02/11 17:38:57;;;;;;;17.90;3.90;;;;;;;;;;5044701;28;20281;-67
2022/02/11 17:41:23;;;;;;;16.80;4.40;;;;;;;;;;5048141;28;20197;-66
2022/02/11 17:43:52;;;;;;;21.20;4.97;;;;;;;;;;5048229;28;20627;-68
2022/02/11 17:46:18;;;;;;;13.37;3.47;;;;;;;;;;5044984;28;20189;-68
2022/02/11 17:48:43;;;;;;;15.27;4.00;;;;;;;;;;5047142;28;20189;-67
2022/02/11 17:51:09;;;;;;;7.97;2.40;;;;;;;;;;5045725;28;20177;-68
2022/02/11 17:53:34;;;;;;;10.87;1.97;;;;;;;;;;5048788;28;20276;-67
2022/02/11 17:55:59;;;;;;;11.33;2.40;;;;;;;;;;5050401;28;20246;-66
2022/02/11 17:58:28;;;;;;;10.30;2.33;;;;;;;;;;5056288;28;20542;-66
2022/02/11 18:01:00;;;;;;;11.53;2.17;;;;;;;;;;5040391;28;20204;-67
2022/02/11 18:03:27;;;;;;;14.93;3.00;;;;;;;;;;5042508;28;20562;-67
2022/02/11 18:05:52;;;;;;;12.27;2.80;;;;;;;;;;5049822;28;20708;-67
2022/02/11 18:08:18;;;;;;;19.03;3.27;;;;;;;;;;5049583;28;20268;-67
2022/02/11 18:10:43;;;;;;;14.17;3.07;;;;;;;;;;5050030;28;20636;-68
2022/02/11 18:13:11;;;;;;;13.10;3.37;;;;;;;;;;5051068;28;20288;-67
2022/02/11 18:15:36;;;;;;;11.33;3.03;;;;;;;;;;5050179;28;20189;-68
2022/02/11 18:18:01;;;;;;;12.30;4.00;;;;;;;;;;5043018;28;20187;-66
2022/02/11 18:20:27;;;;;;;16.67;4.53;;;;;;;;;;5051524;28;20201;-67
2022/02/11 18:22:53;;;;;;;16.63;4.47;;;;;;;;;;5044774;28;20605;-67
2022/02/11 18:25:19;;;;;;;16.37;4.63;;;;;;;;;;5045091;28;20191;-67
2022/02/11 18:27:44;;;;;;;16.07;4.30;;;;;;;;;;5045123;28;20263;-66